Tajin Airport
MMPA : now visible

Airfield :











YOU CAN JOIN US ON...

 
LOGIN :

Register | Disclaimer

   EN    FR    IT 

 









Legend :    VFR   Marginal VFR   IFR   Intensive IFR   Very Intensive IFR
Visi :
Ceiling :
>= 8 km
>= 3000ft
5 to 8 km
1000 to 3000 ft
1500m to 5 km
500 to 1000 ft
800 to 1500m
200 to 500 ft
< 800m
< 200 ft
Symbols :   Thunderstorms  Fog  Heavy snow  Heavy precipitations  Wind > 20 kt






- Airport Elevation : 497 ft
- IATA code : PAZ


MMPA - Tajin

CURRENT METAR :
  • 172041Z 11004KT 6SM BKN025 27/21 A2982 RMK SLP078 57044 984 8/400 HZY

EXPIRED METARs :
  • 171944Z 27005KT 6SM BKN025 27/21 A2984 RMK 8/400 HZY
  • 171841Z 36006KT 6SM BKN025 27/21 A2989 RMK 8/100 HZY

TAF COR TAF MMPA
Valid from the 17 at 18:00 until the 18 at 18:00 UTC


171727Z 1718/1818 06006KT 4SM HZ BKN015
BECMG 1719/1720 BKN020
FM180300 00000KT 4SM HZ BKN012
BECMG 1809/1810 1SM BR HZ BKN006 OVC010
FM181600 03005KT 2SM BR HZ BKN010 OVC015



MET'MAP, your aeronautical weather chart ! - Copyright ORBIFLY December 2007 - Disclaimer

ORBIFLY MET'MAP TEAM :

Programming & Development : Alexandra Zaïnal
Concept & original design : Baudouin d'Aumeries
Assistance for programming : Marc-Olivier Méhu
Technical & hardware support : Manuel Goepfert

Contact : metmap@orbifly.com




SOURCES & CREDITS :

   NOAA       Earth
Advisory